createdAt,value
2023-02-28T00:00:41.883Z,100114.63
2023-02-28T00:03:27.305Z,100121.38
2023-02-28T00:06:12.362Z,100127.72
2023-02-28T00:08:57.760Z,100123.38
2023-02-28T00:11:43.005Z,100124.16
2023-02-28T00:14:28.350Z,100115.81
2023-02-28T00:17:13.679Z,100116.63
2023-02-28T00:20:10.916Z,100121.38
2023-02-28T00:22:56.662Z,100115.81
2023-02-28T00:25:41.837Z,100111.06
2023-02-28T00:28:27.389Z,100117.81
2023-02-28T00:31:12.889Z,100107.09
2023-02-28T00:33:58.121Z,100112.66
2023-02-28T00:36:46.445Z,100113.81
2023-02-28T00:39:31.631Z,100111.88
2023-02-28T00:42:16.928Z,100112.66
2023-02-28T00:45:04.666Z,100107.09
2023-02-28T00:47:50.849Z,100103.53
2023-02-28T00:50:37.086Z,100106.31
2023-02-28T00:53:23.043Z,100109.88
2023-02-28T00:56:08.543Z,100105.50
2023-02-28T00:58:53.848Z,100111.03
2023-02-28T01:01:40.048Z,100109.09
2023-02-28T01:04:25.807Z,100104.72
2023-02-28T01:07:11.407Z,100096.78
2023-02-28T01:09:56.539Z,100100.75
2023-02-28T01:12:43.932Z,100100.75
2023-02-28T01:15:29.461Z,100105.53
2023-02-28T01:18:14.734Z,100109.44
2023-02-28T01:21:05.126Z,100102.31
2023-02-28T01:23:50.879Z,100098.34
2023-02-28T01:26:36.676Z,100096.38
2023-02-28T01:29:21.908Z,100097.56
2023-02-28T01:32:07.055Z,100088.44
2023-02-28T01:34:54.436Z,100086.06
2023-02-28T01:37:39.804Z,100090.44
2023-02-28T01:40:25.087Z,100096.75
2023-02-28T01:43:22.197Z,100084.88
2023-02-28T01:46:07.349Z,100099.94
2023-02-28T01:49:03.968Z,100087.66
2023-02-28T01:51:54.072Z,100088.03
2023-02-28T01:54:39.602Z,100086.06
2023-02-28T01:57:30.942Z,100092.38
2023-02-28T02:00:19.573Z,100088.81
2023-02-28T02:03:11.767Z,100083.28
2023-02-28T02:05:57.040Z,100083.28
2023-02-28T02:08:42.367Z,100076.94
2023-02-28T02:11:30.748Z,100076.16
2023-02-28T02:14:32.085Z,100072.56
2023-02-28T02:17:37.570Z,100076.16
2023-02-28T02:20:54.148Z,100078.94
2023-02-28T02:24:01.578Z,100076.16
2023-02-28T02:27:16.466Z,100071.38
2023-02-28T02:30:25.735Z,100077.31
2023-02-28T02:33:56.986Z,100072.19
2023-02-28T02:37:09.786Z,100072.97
2023-02-28T02:40:14.414Z,100067.81
2023-02-28T02:43:14.556Z,100076.16
2023-02-28T02:46:11.147Z,100076.94
2023-02-28T02:49:00.277Z,100078.13
2023-02-28T02:51:48.646Z,100079.31
2023-02-28T02:54:41.616Z,100078.13
2023-02-28T02:57:53.027Z,100086.47
2023-02-28T03:00:54.132Z,100078.13
2023-02-28T03:03:39.919Z,100077.34
2023-02-28T03:06:26.932Z,100079.31
2023-02-28T03:09:12.737Z,100078.53
2023-02-28T03:11:58.285Z,100080.13
2023-02-28T03:15:20.863Z,100077.34
2023-02-28T03:18:37.064Z,100077.72
2023-02-28T03:21:31.848Z,100084.06
2023-02-28T03:24:24.322Z,100077.72
2023-02-28T03:27:22.321Z,100076.16
2023-02-28T03:30:17.680Z,100071.41
2023-02-28T03:33:15.121Z,100083.28
2023-02-28T03:36:13.439Z,100076.16
2023-02-28T03:39:03.690Z,100076.94
2023-02-28T03:41:55.845Z,100073.75
2023-02-28T03:44:49.883Z,100079.31
2023-02-28T03:47:44.987Z,100074.97
2023-02-28T03:50:42.295Z,100072.19
2023-02-28T03:53:33.482Z,100072.19
2023-02-28T03:56:41.780Z,100082.50
2023-02-28T03:59:31.509Z,100084.50
2023-02-28T04:02:17.098Z,100082.88
2023-02-28T04:05:02.563Z,100085.66
2023-02-28T04:07:49.219Z,100093.59
2023-02-28T04:10:35.016Z,100087.25
2023-02-28T04:13:20.226Z,100092.81
2023-02-28T04:16:18.648Z,100092.00
2023-02-28T04:19:08.867Z,100093.22
2023-02-28T04:21:55.140Z,100098.38
2023-02-28T04:24:42.457Z,100085.66
2023-02-28T04:27:27.782Z,100096.78
2023-02-28T04:30:13.413Z,100098.38
2023-02-28T04:32:59.724Z,100102.31
2023-02-28T04:35:45.311Z,100101.53
2023-02-28T04:38:33.788Z,100109.47
2023-02-28T04:41:19.709Z,100100.75
2023-02-28T04:44:05.074Z,100102.31
2023-02-28T04:46:51.311Z,100102.31
2023-02-28T04:49:36.605Z,100103.53
2023-02-28T04:52:21.883Z,100115.41
2023-02-28T04:55:07.601Z,100110.66
2023-02-28T04:57:52.844Z,100102.72
2023-02-28T05:00:38.115Z,100109.84
2023-02-28T05:03:23.726Z,100107.84
2023-02-28T05:06:10.335Z,100108.66
2023-02-28T05:08:55.933Z,100113.44
2023-02-28T05:11:41.902Z,100122.16
2023-02-28T05:14:27.157Z,100115.81
2023-02-28T05:17:12.391Z,100124.56
2023-02-28T05:20:09.718Z,100124.53
2023-02-28T05:23:01.372Z,100125.72
2023-02-28T05:25:46.872Z,100130.88
2023-02-28T05:28:32.472Z,100126.13
2023-02-28T05:31:18.128Z,100127.69
2023-02-28T05:34:05.228Z,100126.88
2023-02-28T05:36:50.340Z,100127.69
2023-02-28T05:39:36.183Z,100122.09
2023-02-28T05:42:21.777Z,100121.31
2023-02-28T05:45:08.158Z,100128.03
2023-02-28T05:47:57.133Z,100133.22
2023-02-28T05:50:43.792Z,100129.63
2023-02-28T05:53:30.151Z,100135.56
2023-02-28T05:56:15.834Z,100130.41
2023-02-28T05:59:01.341Z,100137.13
2023-02-28T06:01:49.217Z,100138.31
2023-02-28T06:04:35.008Z,100136.31
2023-02-28T06:07:20.201Z,100139.88
2023-02-28T06:10:06.189Z,100146.66
2023-02-28T06:12:51.504Z,100154.22
2023-02-28T06:15:37.002Z,100153.41
2023-02-28T06:18:22.398Z,100148.25
2023-02-28T06:21:07.694Z,100150.25
2023-02-28T06:23:52.984Z,100151.84
2023-02-28T06:26:38.061Z,100153.84
2023-02-28T06:29:23.382Z,100162.97
2023-02-28T06:32:08.632Z,100164.97
2023-02-28T06:34:54.237Z,100166.16
2023-02-28T06:37:41.716Z,100171.31
2023-02-28T06:40:27.610Z,100176.09
2023-02-28T06:43:14.452Z,100178.47
2023-02-28T06:46:02.851Z,100189.97
2023-02-28T06:48:48.313Z,100191.94
2023-02-28T06:51:33.597Z,100197.91
2023-02-28T06:54:18.899Z,100202.66
2023-02-28T06:57:04.204Z,100201.09
2023-02-28T06:59:50.402Z,100198.72
2023-02-28T07:02:37.161Z,100204.66
2023-02-28T07:05:22.725Z,100203.88
2023-02-28T07:08:08.439Z,100197.53
2023-02-28T07:10:55.033Z,100211.03
2023-02-28T07:13:40.584Z,100203.09
2023-02-28T07:16:26.689Z,100207.03
2023-02-28T07:19:12.098Z,100218.13
2023-02-28T07:21:57.361Z,100216.19
2023-02-28T07:24:42.746Z,100211.00
2023-02-28T07:27:28.065Z,100215.00
2023-02-28T07:30:13.717Z,100217.34
2023-02-28T07:32:59.131Z,100211.00
2023-02-28T07:35:45.321Z,100222.13
2023-02-28T07:38:30.712Z,100220.13
2023-02-28T07:41:17.900Z,100220.56
2023-02-28T07:44:04.215Z,100217.78
2023-02-28T07:46:49.745Z,100218.94
2023-02-28T07:49:38.851Z,100219.72
2023-02-28T07:52:25.269Z,100218.94
2023-02-28T07:55:11.628Z,100216.16
2023-02-28T07:57:58.588Z,100223.72
2023-02-28T08:00:43.689Z,100227.66
2023-02-28T08:03:28.942Z,100219.75
2023-02-28T08:06:23.833Z,100220.16
2023-02-28T08:09:09.200Z,100216.56
2023-02-28T08:11:54.537Z,100218.16
2023-02-28T08:14:40.756Z,100221.31
2023-02-28T08:17:26.013Z,100211.81
2023-02-28T08:20:11.839Z,100214.97
2023-02-28T08:22:57.149Z,100216.56
2023-02-28T08:25:42.381Z,100218.56
2023-02-28T08:28:27.812Z,100218.56
2023-02-28T08:39:16.231Z,100217.38
2023-02-28T08:42:08.276Z,100223.31
2023-02-28T08:44:53.367Z,100223.72
2023-02-28T08:47:38.310Z,100222.94
2023-02-28T08:50:22.669Z,100223.31
2023-02-28T08:53:07.207Z,100225.72
2023-02-28T08:55:59.856Z,100229.28
2023-02-28T09:06:46.442Z,100220.16
2023-02-28T09:09:31.158Z,100218.16
2023-02-28T09:12:15.421Z,100214.59
2023-02-28T09:15:00.077Z,100213.41
2023-02-28T09:17:47.016Z,100216.97
2023-02-28T09:20:32.595Z,100217.78
2023-02-28T09:23:17.424Z,100211.81
2023-02-28T09:34:04.851Z,100216.19
2023-02-28T09:36:51.544Z,100202.28
2023-02-28T09:39:36.521Z,100207.03
2023-02-28T09:42:28.192Z,100203.47
2023-02-28T09:45:33.649Z,100209.03
2023-02-28T09:48:25.325Z,100217.78
2023-02-28T09:51:41.056Z,100211.00
2023-02-28T09:54:30.821Z,100215.38
2023-02-28T09:57:30.613Z,100210.63
2023-02-28T10:00:37.406Z,100213.41
2023-02-28T10:03:25.654Z,100211.41
2023-02-28T10:06:34.539Z,100211.00
2023-02-28T10:09:32.885Z,100220.16
2023-02-28T10:12:18.627Z,100211.41
2023-02-28T10:15:05.322Z,100215.00
2023-02-28T10:18:08.803Z,100200.69
2023-02-28T10:20:56.880Z,100208.63
2023-02-28T10:23:42.913Z,100206.25
2023-02-28T10:26:32.185Z,100205.03
2023-02-28T10:29:17.901Z,100206.66
2023-02-28T10:32:05.134Z,100209.81
2023-02-28T10:34:58.514Z,100212.59
2023-02-28T10:37:47.423Z,100207.84
2023-02-28T10:40:39.364Z,100200.28
2023-02-28T10:43:25.630Z,100207.44
2023-02-28T10:46:10.975Z,100206.25
2023-02-28T10:49:13.820Z,100204.66
2023-02-28T10:52:01.120Z,100203.47
2023-02-28T10:54:46.396Z,100197.50
2023-02-28T10:57:31.789Z,100202.28
2023-02-28T11:00:26.263Z,100202.66
2023-02-28T11:03:26.003Z,100197.13
2023-02-28T11:06:19.650Z,100186.38
2023-02-28T11:09:19.049Z,100180.03
2023-02-28T11:12:07.419Z,100186.78
2023-02-28T11:14:59.178Z,100177.66
2023-02-28T11:17:45.044Z,100172.50
2023-02-28T11:20:33.685Z,100165.78
2023-02-28T11:23:21.130Z,100174.47
2023-02-28T11:26:10.537Z,100181.25
2023-02-28T11:29:12.338Z,100172.09
2023-02-28T11:32:14.715Z,100169.72
2023-02-28T11:35:11.471Z,100164.97
2023-02-28T11:37:58.286Z,100163.38
2023-02-28T11:40:46.932Z,100165.75
2023-02-28T11:44:05.104Z,100160.19
2023-02-28T11:46:55.544Z,100160.19
2023-02-28T11:49:43.655Z,100159.41
2023-02-28T11:52:49.379Z,100162.19
2023-02-28T11:55:39.865Z,100164.16
2023-02-28T11:58:52.850Z,100157.81
2023-02-28T12:02:07.155Z,100160.97
2023-02-28T12:05:19.279Z,100141.53
2023-02-28T12:08:23.549Z,100149.88
2023-02-28T12:11:28.149Z,100146.69
2023-02-28T12:14:37.857Z,100141.97
2023-02-28T12:17:26.269Z,100143.91
2023-02-28T12:20:33.561Z,100149.91
2023-02-28T12:23:40.493Z,100143.91
2023-02-28T12:26:41.099Z,100151.47
2023-02-28T12:29:50.403Z,100151.47
2023-02-28T12:32:52.566Z,100143.56
2023-02-28T12:35:45.073Z,100138.00
2023-02-28T12:38:39.370Z,100134.81
2023-02-28T12:42:08.836Z,100144.34
2023-02-28T12:45:00.006Z,100135.59
2023-02-28T12:47:49.667Z,100139.56
2023-02-28T12:50:37.141Z,100137.19
2023-02-28T12:53:43.610Z,100130.44
2023-02-28T12:56:35.324Z,100130.81
2023-02-28T12:59:41.200Z,100125.66
2023-02-28T13:02:41.781Z,100123.66
2023-02-28T13:05:51.815Z,100128.41
2023-02-28T13:09:16.615Z,100126.03
2023-02-28T13:12:02.150Z,100128.03
2023-02-28T13:14:49.546Z,100129.19
2023-02-28T13:17:35.386Z,100122.44
2023-02-28T13:20:36.021Z,100127.59
2023-02-28T13:23:56.961Z,100120.44
2023-02-28T13:26:42.735Z,100127.59
2023-02-28T13:29:43.085Z,100127.59
2023-02-28T13:32:34.464Z,100123.59
2023-02-28T13:35:37.243Z,100119.63
2023-02-28T13:38:26.145Z,100121.22
2023-02-28T13:41:44.678Z,100121.22
2023-02-28T13:44:30.242Z,100122.00
2023-02-28T13:47:25.736Z,100110.50
2023-02-28T13:50:40.159Z,100119.66
2023-02-28T13:53:59.127Z,100106.94
2023-02-28T13:57:05.781Z,100102.19
2023-02-28T14:00:06.514Z,100103.41
2023-02-28T14:03:35.030Z,100112.53
2023-02-28T14:06:38.220Z,100107.75
2023-02-28T14:09:26.695Z,100095.06
2023-02-28T14:12:49.707Z,100101.84
2023-02-28T14:15:35.315Z,100098.28
2023-02-28T14:18:27.287Z,100097.88
2023-02-28T14:21:27.353Z,100096.69
2023-02-28T14:24:40.507Z,100091.53
2023-02-28T14:27:44.829Z,100084.81
2023-02-28T14:30:52.771Z,100081.63
2023-02-28T14:34:02.878Z,100086.00
2023-02-28T14:36:52.630Z,100083.63
2023-02-28T14:39:42.916Z,100089.59
2023-02-28T14:42:29.157Z,100084.81
2023-02-28T14:45:22.557Z,100090.38
2023-02-28T14:48:10.999Z,100080.09
2023-02-28T14:50:59.642Z,100081.28
2023-02-28T14:57:30.775Z,100083.28
2023-02-28T15:03:24.466Z,100089.22
2023-02-28T15:06:18.495Z,100083.28
2023-02-28T15:09:19.765Z,100088.03
2023-02-28T15:12:05.408Z,100087.66
2023-02-28T15:14:52.290Z,100089.22
2023-02-28T15:17:37.870Z,100090.81
2023-02-28T15:20:25.441Z,100095.97
2023-02-28T15:23:14.989Z,100096.38
2023-02-28T15:26:01.192Z,100084.47
2023-02-28T15:28:46.873Z,100085.69
2023-02-28T15:31:56.503Z,100082.91
2023-02-28T15:34:45.097Z,100088.06
2023-02-28T15:37:34.966Z,100089.22
2023-02-28T15:40:27.732Z,100087.66
2023-02-28T15:43:23.882Z,100094.00
2023-02-28T15:46:13.355Z,100098.78
2023-02-28T15:48:58.776Z,100101.53
2023-02-28T15:51:44.388Z,100100.75
2023-02-28T15:54:38.581Z,100097.59
2023-02-28T15:57:27.460Z,100102.31
2023-02-28T16:00:17.288Z,100102.75
2023-02-28T16:03:26.786Z,100104.69
2023-02-28T16:06:27.635Z,100106.31
2023-02-28T16:09:17.474Z,100103.53
2023-02-28T16:12:04.301Z,100097.56
2023-02-28T16:14:53.542Z,100096.75
2023-02-28T16:17:40.319Z,100092.00
2023-02-28T16:20:30.645Z,100092.00
2023-02-28T16:23:16.106Z,100110.25
2023-02-28T16:26:04.159Z,100103.09
2023-02-28T16:28:50.327Z,100100.31
2023-02-28T16:31:38.862Z,100100.31
2023-02-28T16:34:24.567Z,100102.31
2023-02-28T16:37:15.181Z,100096.75
2023-02-28T16:40:00.538Z,100096.75
2023-02-28T16:42:47.762Z,100104.69
2023-02-28T16:45:33.095Z,100104.69
2023-02-28T16:48:18.397Z,100100.31
2023-02-28T16:51:05.363Z,100098.75
2023-02-28T16:53:50.623Z,100104.31
2023-02-28T16:56:36.224Z,100107.09
2023-02-28T16:59:27.229Z,100105.47
2023-02-28T17:02:15.495Z,100110.25
2023-02-28T17:05:01.138Z,100115.81
2023-02-28T17:07:47.157Z,100113.41
2023-02-28T17:10:32.693Z,100116.19
2023-02-28T17:13:17.980Z,100118.19
2023-02-28T17:16:03.783Z,100116.97
2023-02-28T17:18:49.469Z,100115.81
2023-02-28T17:21:35.182Z,100118.19
2023-02-28T17:24:30.267Z,100117.41
2023-02-28T17:27:16.673Z,100123.34
2023-02-28T17:30:02.003Z,100125.31
2023-02-28T17:32:47.870Z,100122.53
2023-02-28T17:35:33.654Z,100123.75
2023-02-28T17:38:20.543Z,100127.72
2023-02-28T17:41:06.273Z,100130.88
2023-02-28T17:43:51.942Z,100128.50
2023-02-28T17:46:38.151Z,100122.94
2023-02-28T17:49:24.009Z,100124.50
2023-02-28T17:52:09.833Z,100122.56
2023-02-28T17:54:59.220Z,100118.16
2023-02-28T17:57:44.780Z,100126.13
2023-02-28T18:00:30.432Z,100111.03
2023-02-28T18:03:15.743Z,100117.38
2023-02-28T18:06:02.352Z,100119.75
2023-02-28T18:08:48.421Z,100105.84
2023-02-28T18:11:44.478Z,100105.06
2023-02-28T18:14:29.812Z,100108.63
2023-02-28T18:17:15.470Z,100114.97
2023-02-28T18:20:00.967Z,100110.97
2023-02-28T18:22:47.617Z,100115.34
2023-02-28T18:25:33.230Z,100116.91
2023-02-28T18:28:18.756Z,100120.88
2023-02-28T18:31:12.931Z,100119.66
2023-02-28T18:33:59.928Z,100114.09
2023-02-28T18:36:47.249Z,100109.75
2023-02-28T18:39:32.502Z,100114.91
2023-02-28T18:42:17.960Z,100117.28
2023-02-28T18:45:03.978Z,100113.69
2023-02-28T18:47:50.139Z,100118.88
2023-02-28T18:50:38.269Z,100114.53
2023-02-28T18:53:24.656Z,100109.75
2023-02-28T18:56:13.624Z,100118.88
2023-02-28T18:58:59.199Z,100106.97
2023-02-28T19:01:46.688Z,100116.47
2023-02-28T19:04:32.074Z,100110.53
2023-02-28T19:07:17.829Z,100110.94
2023-02-28T19:10:03.822Z,100108.56
2023-02-28T19:12:49.598Z,100112.91
2023-02-28T19:15:35.202Z,100112.09
2023-02-28T19:18:20.607Z,100117.25
2023-02-28T19:21:10.940Z,100114.09
2023-02-28T19:23:56.771Z,100110.53
2023-02-28T19:26:42.206Z,100112.88
2023-02-28T19:29:30.325Z,100114.88
2023-02-28T19:32:17.218Z,100121.22
2023-02-28T19:35:04.712Z,100112.88
2023-02-28T19:37:53.658Z,100117.25
2023-02-28T19:40:42.390Z,100111.72
2023-02-28T19:43:28.425Z,100111.72
2023-02-28T19:46:15.010Z,100106.94
2023-02-28T19:49:03.812Z,100111.72
2023-02-28T19:51:51.004Z,100112.09
2023-02-28T19:54:36.781Z,100113.69
2023-02-28T19:57:22.788Z,100115.69
2023-02-28T20:00:10.574Z,100123.22
2023-02-28T20:02:59.506Z,100120.44
2023-02-28T20:05:45.669Z,100119.66
2023-02-28T20:08:31.504Z,100122.81
2023-02-28T20:11:22.108Z,100128.78
2023-02-28T20:14:17.750Z,100132.34
2023-02-28T20:17:03.622Z,100126.00
2023-02-28T20:19:49.773Z,100137.91
2023-02-28T20:22:38.236Z,100137.13
2023-02-28T20:25:24.069Z,100136.31
2023-02-28T20:28:09.641Z,100132.34
2023-02-28T20:30:55.812Z,100126.78
2023-02-28T20:33:45.537Z,100119.66
2023-02-28T20:36:32.673Z,100122.03
2023-02-28T20:39:18.222Z,100127.59
2023-02-28T20:42:04.040Z,100127.19
2023-02-28T20:44:49.336Z,100130.75
2023-02-28T20:47:34.678Z,100130.75
2023-02-28T20:50:20.259Z,100131.56
2023-02-28T20:53:05.676Z,100123.59
2023-02-28T20:55:59.420Z,100127.19
2023-02-28T20:58:48.045Z,100130.78
2023-02-28T21:01:33.513Z,100126.78
2023-02-28T21:04:18.704Z,100132.34
2023-02-28T21:07:04.656Z,100133.16
2023-02-28T21:09:49.897Z,100130.75
2023-02-28T21:12:35.293Z,100129.16
2023-02-28T21:15:21.507Z,100126.78
2023-02-28T21:18:06.963Z,100124.34
2023-02-28T21:20:52.214Z,100129.53
2023-02-28T21:23:37.847Z,100137.88
2023-02-28T21:26:24.313Z,100132.69
2023-02-28T21:29:09.695Z,100131.50
2023-02-28T21:31:55.086Z,100134.66
2023-02-28T21:34:41.554Z,100129.91
2023-02-28T21:37:27.440Z,100126.75
2023-02-28T21:40:13.402Z,100134.28
2023-02-28T21:42:59.020Z,100135.47
2023-02-28T21:45:44.235Z,100138.25
2023-02-28T21:48:30.464Z,100136.66
2023-02-28T21:51:22.412Z,100133.47
2023-02-28T21:54:08.577Z,100139.44
2023-02-28T21:56:55.635Z,100142.59
2023-02-28T21:59:44.089Z,100136.25
2023-02-28T22:02:30.887Z,100136.28
2023-02-28T22:05:16.124Z,100139.47
2023-02-28T22:08:01.614Z,100135.91
2023-02-28T22:10:46.952Z,100137.13
2023-02-28T22:13:36.308Z,100128.38
2023-02-28T22:16:22.683Z,100129.56
2023-02-28T22:19:08.299Z,100124.44
2023-02-28T22:21:53.990Z,100123.63
2023-02-28T22:24:39.913Z,100129.59
2023-02-28T22:27:25.111Z,100130.41
2023-02-28T22:30:10.906Z,100132.41
2023-02-28T22:32:56.210Z,100128.41
2023-02-28T22:35:41.733Z,100124.44
2023-02-28T22:38:27.392Z,100117.31
2023-02-28T22:41:13.051Z,100118.91
2023-02-28T22:44:01.343Z,100118.53
2023-02-28T22:46:46.870Z,100121.69
2023-02-28T22:49:32.215Z,100126.47
2023-02-28T22:52:17.539Z,100119.72
2023-02-28T22:55:02.870Z,100115.34
2023-02-28T22:57:48.161Z,100123.69
2023-02-28T23:00:33.692Z,100128.84
2023-02-28T23:03:18.958Z,100129.28
2023-02-28T23:06:18.606Z,100130.44
2023-02-28T23:09:06.638Z,100127.28
2023-02-28T23:11:52.304Z,100132.44
2023-02-28T23:14:37.974Z,100126.88
2023-02-28T23:17:23.259Z,100133.63
2023-02-28T23:20:09.430Z,100134.81
2023-02-28T23:22:55.463Z,100132.47
2023-02-28T23:25:41.765Z,100132.47
2023-02-28T23:28:27.465Z,100149.13
2023-02-28T23:31:12.838Z,100136.84
2023-02-28T23:33:58.352Z,100137.63
2023-02-28T23:36:46.057Z,100133.25
2023-02-28T23:39:31.854Z,100133.25
2023-02-28T23:42:17.208Z,100128.50
2023-02-28T23:45:03.631Z,100136.44
2023-02-28T23:47:48.933Z,100145.16
2023-02-28T23:50:34.321Z,100144.38
2023-02-28T23:53:19.531Z,100149.94
2023-02-28T23:56:06.887Z,100145.94
2023-02-28T23:58:54.790Z,100144.38
